sensor_id;sensor_type;location;lat;lon;timestamp;pressure;altitude;pressure_sealevel;temperature;humidity
10732;BME280;74907;42.812;23.216;2024-01-15T00:00:12;94975.81;;;-4.15;83.71
10732;BME280;74907;42.812;23.216;2024-01-15T00:02:39;94979.22;;;-4.16;83.50
10732;BME280;74907;42.812;23.216;2024-01-15T00:05:06;94976.88;;;-4.29;83.48
10732;BME280;74907;42.812;23.216;2024-01-15T00:07:32;94975.22;;;-4.32;83.84
10732;BME280;74907;42.812;23.216;2024-01-15T00:09:59;94968.59;;;-4.40;84.04
10732;BME280;74907;42.812;23.216;2024-01-15T00:12:28;94961.06;;;-4.47;83.91
10732;BME280;74907;42.812;23.216;2024-01-15T00:14:54;94974.63;;;-4.49;83.97
10732;BME280;74907;42.812;23.216;2024-01-15T00:17:21;94961.38;;;-4.68;84.30
10732;BME280;74907;42.812;23.216;2024-01-15T00:19:48;94970.50;;;-4.56;83.90
10732;BME280;74907;42.812;23.216;2024-01-15T00:22:14;94973.19;;;-4.65;84.48
10732;BME280;74907;42.812;23.216;2024-01-15T00:24:41;94968.97;;;-4.69;84.54
10732;BME280;74907;42.812;23.216;2024-01-15T00:27:08;94964.50;;;-4.51;84.21
10732;BME280;74907;42.812;23.216;2024-01-15T00:29:36;94972.13;;;-4.51;84.35
10732;BME280;74907;42.812;23.216;2024-01-15T00:32:03;94966.25;;;-4.54;83.77
10732;BME280;74907;42.812;23.216;2024-01-15T00:34:29;94974.75;;;-4.57;83.17
10732;BME280;74907;42.812;23.216;2024-01-15T00:36:56;94975.81;;;-4.73;83.71
10732;BME280;74907;42.812;23.216;2024-01-15T00:39:23;94971.03;;;-4.96;84.01
10732;BME280;74907;42.812;23.216;2024-01-15T00:41:50;94982.13;;;-5.03;83.99
10732;BME280;74907;42.812;23.216;2024-01-15T00:44:16;94981.28;;;-5.03;84.78
10732;BME280;74907;42.812;23.216;2024-01-15T00:46:45;94985.63;;;-5.12;85.06
10732;BME280;74907;42.812;23.216;2024-01-15T00:49:12;94984.00;;;-5.19;85.10
10732;BME280;74907;42.812;23.216;2024-01-15T00:51:39;94988.91;;;-5.05;85.31
10732;BME280;74907;42.812;23.216;2024-01-15T00:54:06;94996.53;;;-5.05;85.14
10732;BME280;74907;42.812;23.216;2024-01-15T00:56:33;94983.78;;;-5.00;84.91
10732;BME280;74907;42.812;23.216;2024-01-15T00:59:00;94984.84;;;-5.17;84.88
10732;BME280;74907;42.812;23.216;2024-01-15T01:01:27;94982.34;;;-5.23;85.19
10732;BME280;74907;42.812;23.216;2024-01-15T01:03:55;94987.34;;;-5.14;84.95
10732;BME280;74907;42.812;23.216;2024-01-15T01:06:22;94977.19;;;-5.14;85.32
10732;BME280;74907;42.812;23.216;2024-01-15T01:08:49;94978.91;;;-5.17;84.79
10732;BME280;74907;42.812;23.216;2024-01-15T01:11:15;94971.34;;;-5.23;85.46
10732;BME280;74907;42.812;23.216;2024-01-15T01:13:42;94974.72;;;-5.23;86.33
10732;BME280;74907;42.812;23.216;2024-01-15T01:16:09;94965.41;;;-5.22;85.77
10732;BME280;74907;42.812;23.216;2024-01-15T01:18:36;94969.66;;;-5.20;85.68
10732;BME280;74907;42.812;23.216;2024-01-15T01:21:04;94963.66;;;-5.14;85.19
10732;BME280;74907;42.812;23.216;2024-01-15T01:23:31;94959.56;;;-5.27;85.51
10732;BME280;74907;42.812;23.216;2024-01-15T01:25:58;94953.72;;;-5.34;85.27
10732;BME280;74907;42.812;23.216;2024-01-15T01:28:24;94948.66;;;-5.34;85.89
10732;BME280;74907;42.812;23.216;2024-01-15T01:30:51;94947.00;;;-5.36;85.81
10732;BME280;74907;42.812;23.216;2024-01-15T01:33:18;94947.00;;;-5.38;86.36
10732;BME280;74907;42.812;23.216;2024-01-15T01:35:44;94941.06;;;-5.35;85.92
10732;BME280;74907;42.812;23.216;2024-01-15T01:38:13;94935.84;;;-5.23;85.83
10732;BME280;74907;42.812;23.216;2024-01-15T01:40:40;94946.66;;;-5.07;85.72
10732;BME280;74907;42.812;23.216;2024-01-15T01:43:08;94931.25;;;-4.95;85.56
10732;BME280;74907;42.812;23.216;2024-01-15T01:45:35;94932.97;;;-4.96;84.48
10732;BME280;74907;42.812;23.216;2024-01-15T01:48:04;94923.88;;;-5.11;84.79
10732;BME280;74907;42.812;23.216;2024-01-15T01:50:31;94928.16;;;-5.16;84.55
10732;BME280;74907;42.812;23.216;2024-01-15T01:52:58;94930.47;;;-4.99;84.39
10732;BME280;74907;42.812;23.216;2024-01-15T01:55:27;94938.22;;;-5.08;84.19
10732;BME280;74907;42.812;23.216;2024-01-15T01:57:56;94937.38;;;-5.10;83.84
10732;BME280;74907;42.812;23.216;2024-01-15T02:00:23;94924.00;;;-5.23;83.90
10732;BME280;74907;42.812;23.216;2024-01-15T02:02:50;94920.53;;;-5.14;84.09
10732;BME280;74907;42.812;23.216;2024-01-15T02:05:18;94925.56;;;-5.11;83.73
10732;BME280;74907;42.812;23.216;2024-01-15T02:07:45;94923.81;;;-5.07;83.47
10732;BME280;74907;42.812;23.216;2024-01-15T02:10:13;94921.31;;;-5.11;83.32
10732;BME280;74907;42.812;23.216;2024-01-15T02:12:42;94913.09;;;-5.31;83.43
10732;BME280;74907;42.812;23.216;2024-01-15T02:15:09;94912.25;;;-5.30;83.75
10732;BME280;74907;42.812;23.216;2024-01-15T02:17:56;94901.44;;;-5.46;84.26
10732;BME280;74907;42.812;23.216;2024-01-15T02:20:23;94902.34;;;-5.50;84.31
10732;BME280;74907;42.812;23.216;2024-01-15T02:22:49;94891.28;;;-5.43;83.96
10732;BME280;74907;42.812;23.216;2024-01-15T02:25:18;94865.88;;;-5.41;84.22
10732;BME280;74907;42.812;23.216;2024-01-15T02:27:46;94871.22;;;-5.61;84.45
10732;BME280;74907;42.812;23.216;2024-01-15T02:30:13;94868.44;;;-5.41;84.04
10732;BME280;74907;42.812;23.216;2024-01-15T02:32:40;94876.75;;;-5.31;83.53
10732;BME280;74907;42.812;23.216;2024-01-15T02:35:07;94884.34;;;-5.30;82.90
10732;BME280;74907;42.812;23.216;2024-01-15T02:37:34;94885.16;;;-5.28;82.23
10732;BME280;74907;42.812;23.216;2024-01-15T02:40:00;94891.22;;;-5.40;82.19
10732;BME280;74907;42.812;23.216;2024-01-15T02:42:28;94885.53;;;-5.57;82.72
10732;BME280;74907;42.812;23.216;2024-01-15T02:45:04;94899.13;;;-5.64;82.75
10732;BME280;74907;42.812;23.216;2024-01-15T02:47:32;94889.88;;;-5.66;83.23
10732;BME280;74907;42.812;23.216;2024-01-15T02:50:00;94884.69;;;-5.57;83.42
10732;BME280;74907;42.812;23.216;2024-01-15T02:52:26;94887.34;;;-5.68;83.57
10732;BME280;74907;42.812;23.216;2024-01-15T02:54:53;94888.22;;;-5.70;84.00
10732;BME280;74907;42.812;23.216;2024-01-15T02:57:20;94883.84;;;-5.56;84.07
10732;BME280;74907;42.812;23.216;2024-01-15T02:59:48;94882.28;;;-5.66;84.08
10732;BME280;74907;42.812;23.216;2024-01-15T03:02:14;94879.00;;;-5.78;84.31
10732;BME280;74907;42.812;23.216;2024-01-15T03:04:43;94879.91;;;-5.85;84.93
10732;BME280;74907;42.812;23.216;2024-01-15T03:07:14;94872.41;;;-5.91;85.20
10732;BME280;74907;42.812;23.216;2024-01-15T03:09:43;94862.34;;;-5.97;85.67
10732;BME280;74907;42.812;23.216;2024-01-15T03:12:10;94866.56;;;-5.96;85.82
10732;BME280;74907;42.812;23.216;2024-01-15T03:14:37;94854.81;;;-6.03;86.27
10732;BME280;74907;42.812;23.216;2024-01-15T03:17:05;94860.66;;;-5.96;86.32
10732;BME280;74907;42.812;23.216;2024-01-15T03:19:34;94863.13;;;-5.90;86.90
10732;BME280;74907;42.812;23.216;2024-01-15T03:22:01;94867.13;;;-5.76;86.69
10732;BME280;74907;42.812;23.216;2024-01-15T03:24:29;94856.97;;;-5.69;86.32
10732;BME280;74907;42.812;23.216;2024-01-15T03:26:55;94851.06;;;-5.73;86.50
10732;BME280;74907;42.812;23.216;2024-01-15T03:29:22;94854.22;;;-5.53;85.88
10732;BME280;74907;42.812;23.216;2024-01-15T03:31:49;94856.09;;;-5.67;85.34
10732;BME280;74907;42.812;23.216;2024-01-15T03:34:17;94852.75;;;-5.70;85.57
10732;BME280;74907;42.812;23.216;2024-01-15T03:36:44;94848.56;;;-5.78;85.66
10732;BME280;74907;42.812;23.216;2024-01-15T03:39:11;94858.56;;;-5.64;85.60
10732;BME280;74907;42.812;23.216;2024-01-15T03:41:37;94856.97;;;-5.69;85.49
10732;BME280;74907;42.812;23.216;2024-01-15T03:44:04;94860.34;;;-5.70;86.00
10732;BME280;74907;42.812;23.216;2024-01-15T03:46:31;94862.00;;;-5.66;85.52
10732;BME280;74907;42.812;23.216;2024-01-15T03:48:58;94846.69;;;-5.60;86.35
10732;BME280;74907;42.812;23.216;2024-01-15T03:51:26;94855.06;;;-5.54;86.38
10732;BME280;74907;42.812;23.216;2024-01-15T03:53:53;94849.81;;;-5.40;86.81
10732;BME280;74907;42.812;23.216;2024-01-15T03:56:19;94843.81;;;-5.33;86.32
10732;BME280;74907;42.812;23.216;2024-01-15T03:58:46;94844.63;;;-5.32;86.29
10732;BME280;74907;42.812;23.216;2024-01-15T04:01:13;94835.31;;;-5.32;86.58
10732;BME280;74907;42.812;23.216;2024-01-15T04:03:41;94842.78;;;-5.20;86.69
10732;BME280;74907;42.812;23.216;2024-01-15T04:06:07;94836.03;;;-5.19;86.48
10732;BME280;74907;42.812;23.216;2024-01-15T04:08:35;94838.53;;;-5.18;86.89
10732;BME280;74907;42.812;23.216;2024-01-15T04:11:02;94837.59;;;-5.12;86.20
10732;BME280;74907;42.812;23.216;2024-01-15T04:13:32;94816.44;;;-5.11;86.42
10732;BME280;74907;42.812;23.216;2024-01-15T04:16:00;94833.97;;;-4.96;86.27
10732;BME280;74907;42.812;23.216;2024-01-15T04:18:27;94834.69;;;-4.88;85.88
10732;BME280;74907;42.812;23.216;2024-01-15T04:20:53;94827.88;;;-4.84;86.47
10732;BME280;74907;42.812;23.216;2024-01-15T04:23:20;94829.47;;;-4.79;86.28
10732;BME280;74907;42.812;23.216;2024-01-15T04:25:48;94825.03;;;-4.64;86.37
10732;BME280;74907;42.812;23.216;2024-01-15T04:28:15;94819.75;;;-4.52;86.90
10732;BME280;74907;42.812;23.216;2024-01-15T04:30:42;94817.13;;;-4.48;86.58
10732;BME280;74907;42.812;23.216;2024-01-15T04:33:08;94820.44;;;-4.42;86.94
10732;BME280;74907;42.812;23.216;2024-01-15T04:35:35;94810.94;;;-4.33;87.19
10732;BME280;74907;42.812;23.216;2024-01-15T04:38:02;94814.97;;;-4.21;86.28
10732;BME280;74907;42.812;23.216;2024-01-15T04:40:29;94799.34;;;-4.00;86.35
10732;BME280;74907;42.812;23.216;2024-01-15T04:42:57;94807.75;;;-3.96;86.33
10732;BME280;74907;42.812;23.216;2024-01-15T04:45:23;94796.41;;;-3.80;85.90
10732;BME280;74907;42.812;23.216;2024-01-15T04:47:53;94806.53;;;-3.78;85.48
10732;BME280;74907;42.812;23.216;2024-01-15T04:50:21;94802.19;;;-3.73;85.54
10732;BME280;74907;42.812;23.216;2024-01-15T04:52:47;94798.66;;;-3.66;85.51
10732;BME280;74907;42.812;23.216;2024-01-15T04:55:14;94811.34;;;-3.63;84.71
10732;BME280;74907;42.812;23.216;2024-01-15T04:57:40;94798.56;;;-3.60;84.61
10732;BME280;74907;42.812;23.216;2024-01-15T05:00:10;94795.94;;;-3.57;85.12
10732;BME280;74907;42.812;23.216;2024-01-15T05:02:37;94804.28;;;-3.51;84.87
10732;BME280;74907;42.812;23.216;2024-01-15T05:05:04;94801.84;;;-3.55;84.61
10732;BME280;74907;42.812;23.216;2024-01-15T05:07:31;94800.16;;;-3.56;84.63
10732;BME280;74907;42.812;23.216;2024-01-15T05:09:57;94807.72;;;-3.53;84.53
10732;BME280;74907;42.812;23.216;2024-01-15T05:12:24;94806.03;;;-3.53;85.01
10732;BME280;74907;42.812;23.216;2024-01-15T05:14:51;94801.56;;;-3.41;84.90
10732;BME280;74907;42.812;23.216;2024-01-15T05:17:19;94801.66;;;-3.46;84.42
10732;BME280;74907;42.812;23.216;2024-01-15T05:19:45;94804.13;;;-3.43;84.66
10732;BME280;74907;42.812;23.216;2024-01-15T05:22:12;94793.28;;;-3.51;84.09
10732;BME280;74907;42.812;23.216;2024-01-15T05:24:39;94789.00;;;-3.49;84.53
10732;BME280;74907;42.812;23.216;2024-01-15T05:27:05;94787.38;;;-3.53;84.99
10732;BME280;74907;42.812;23.216;2024-01-15T05:29:32;94785.75;;;-3.56;84.86
10732;BME280;74907;42.812;23.216;2024-01-15T05:31:59;94784.03;;;-3.55;85.17
10732;BME280;74907;42.812;23.216;2024-01-15T05:34:27;94785.72;;;-3.54;86.10
10732;BME280;74907;42.812;23.216;2024-01-15T05:36:54;94779.41;;;-3.38;85.89
10732;BME280;74907;42.812;23.216;2024-01-15T05:39:20;94774.25;;;-3.35;85.68
10732;BME280;74907;42.812;23.216;2024-01-15T05:41:47;94765.25;;;-3.11;85.03
10732;BME280;74907;42.812;23.216;2024-01-15T05:44:14;94761.41;;;-3.29;84.44
10732;BME280;74907;42.812;23.216;2024-01-15T05:46:40;94754.75;;;-3.34;84.11
10732;BME280;74907;42.812;23.216;2024-01-15T05:49:07;94755.16;;;-3.15;84.67
10732;BME280;74907;42.812;23.216;2024-01-15T05:51:35;94749.94;;;-3.09;84.12
10732;BME280;74907;42.812;23.216;2024-01-15T05:54:02;94751.47;;;-3.02;83.66
10732;BME280;74907;42.812;23.216;2024-01-15T05:56:29;94754.31;;;-3.16;83.53
10732;BME280;74907;42.812;23.216;2024-01-15T05:58:55;94766.38;;;-3.24;83.47
10732;BME280;74907;42.812;23.216;2024-01-15T06:01:22;94761.44;;;-3.30;83.45
10732;BME280;74907;42.812;23.216;2024-01-15T06:03:49;94761.28;;;-3.24;83.46
10732;BME280;74907;42.812;23.216;2024-01-15T06:06:15;94775.69;;;-3.23;84.05
10732;BME280;74907;42.812;23.216;2024-01-15T06:08:43;94779.25;;;-3.30;83.71
10732;BME280;74907;42.812;23.216;2024-01-15T06:11:10;94770.78;;;-3.31;83.73
10732;BME280;74907;42.812;23.216;2024-01-15T06:13:37;94766.63;;;-3.35;83.81
10732;BME280;74907;42.812;23.216;2024-01-15T06:16:13;94764.38;;;-3.48;84.16
10732;BME280;74907;42.812;23.216;2024-01-15T06:18:39;94755.63;;;-3.35;84.27
10732;BME280;74907;42.812;23.216;2024-01-15T06:21:06;94758.00;;;-3.29;84.42
10732;BME280;74907;42.812;23.216;2024-01-15T06:23:36;94715.38;;;-3.57;84.60
10732;BME280;74907;42.812;23.216;2024-01-15T06:26:04;94768.69;;;-3.13;83.99
10732;BME280;74907;42.812;23.216;2024-01-15T06:28:31;94770.16;;;-3.03;84.36
10732;BME280;74907;42.812;23.216;2024-01-15T06:30:58;94767.66;;;-3.05;83.77
10732;BME280;74907;42.812;23.216;2024-01-15T06:33:24;94766.69;;;-2.99;83.68
10732;BME280;74907;42.812;23.216;2024-01-15T06:35:51;94765.69;;;-2.94;83.54
10732;BME280;74907;42.812;23.216;2024-01-15T06:38:18;94764.81;;;-2.93;83.76
10732;BME280;74907;42.812;23.216;2024-01-15T06:40:44;94761.28;;;-2.87;83.24
10732;BME280;74907;42.812;23.216;2024-01-15T06:43:15;94761.25;;;-2.86;83.42
10732;BME280;74907;42.812;23.216;2024-01-15T06:45:41;94745.06;;;-2.83;82.98
10732;BME280;74907;42.812;23.216;2024-01-15T06:48:09;94746.84;;;-2.52;83.71
10732;BME280;74907;42.812;23.216;2024-01-15T06:50:38;94752.06;;;-2.25;82.56
10732;BME280;74907;42.812;23.216;2024-01-15T06:53:04;94750.34;;;-1.92;82.41
10732;BME280;74907;42.812;23.216;2024-01-15T06:55:31;94761.94;;;-1.81;81.01
10732;BME280;74907;42.812;23.216;2024-01-15T06:57:58;94757.28;;;-1.67;80.24
10732;BME280;74907;42.812;23.216;2024-01-15T07:00:26;94761.22;;;-1.55;79.51
10732;BME280;74907;42.812;23.216;2024-01-15T07:02:52;94763.31;;;-1.70;79.69
10732;BME280;74907;42.812;23.216;2024-01-15T07:05:20;94761.72;;;-1.74;79.56
10732;BME280;74907;42.812;23.216;2024-01-15T07:07:47;94761.16;;;-1.83;80.30
10732;BME280;74907;42.812;23.216;2024-01-15T07:10:13;94752.84;;;-1.90;80.28
10732;BME280;74907;42.812;23.216;2024-01-15T07:12:41;94764.13;;;-1.99;81.10
10732;BME280;74907;42.812;23.216;2024-01-15T07:15:08;94765.00;;;-2.00;80.91
10732;BME280;74907;42.812;23.216;2024-01-15T07:17:37;94762.47;;;-2.00;81.32
10732;BME280;74907;42.812;23.216;2024-01-15T07:20:06;94774.41;;;-2.02;81.54
10732;BME280;74907;42.812;23.216;2024-01-15T07:22:33;94764.22;;;-2.02;81.30
10732;BME280;74907;42.812;23.216;2024-01-15T07:25:00;94763.25;;;-1.98;81.57
10732;BME280;74907;42.812;23.216;2024-01-15T07:27:27;94749.59;;;-1.95;81.84
10732;BME280;74907;42.812;23.216;2024-01-15T07:29:53;94760.53;;;-1.92;81.03
10732;BME280;74907;42.812;23.216;2024-01-15T07:32:20;94753.59;;;-1.86;81.20
10732;BME280;74907;42.812;23.216;2024-01-15T07:34:48;94751.09;;;-1.88;81.91
10732;BME280;74907;42.812;23.216;2024-01-15T07:37:15;94758.59;;;-1.83;82.13
10732;BME280;74907;42.812;23.216;2024-01-15T07:39:42;94757.63;;;-1.79;81.99
10732;BME280;74907;42.812;23.216;2024-01-15T07:42:08;94757.81;;;-1.85;82.17
10732;BME280;74907;42.812;23.216;2024-01-15T07:44:35;94745.63;;;-1.76;82.32
10732;BME280;74907;42.812;23.216;2024-01-15T07:47:02;94738.06;;;-1.79;82.00
10732;BME280;74907;42.812;23.216;2024-01-15T07:49:29;94740.31;;;-1.68;82.11
10732;BME280;74907;42.812;23.216;2024-01-15T07:51:57;94736.88;;;-1.67;82.40
10732;BME280;74907;42.812;23.216;2024-01-15T07:54:24;94739.44;;;-1.67;82.06
10732;BME280;74907;42.812;23.216;2024-01-15T07:56:54;94721.38;;;-1.61;81.81
10732;BME280;74907;42.812;23.216;2024-01-15T07:59:21;94717.84;;;-1.57;81.93
10732;BME280;74907;42.812;23.216;2024-01-15T08:01:48;94734.66;;;-1.48;82.05
10732;BME280;74907;42.812;23.216;2024-01-15T08:04:15;94741.28;;;-1.43;82.05
10732;BME280;74907;42.812;23.216;2024-01-15T08:06:41;94753.31;;;-1.46;81.79
10732;BME280;74907;42.812;23.216;2024-01-15T08:09:10;94754.88;;;-1.42;81.79
10732;BME280;74907;42.812;23.216;2024-01-15T08:11:39;94755.53;;;-1.36;81.45
10732;BME280;74907;42.812;23.216;2024-01-15T08:14:07;94749.34;;;-1.29;81.47
10732;BME280;74907;42.812;23.216;2024-01-15T08:16:34;94748.69;;;-1.07;81.59
10732;BME280;74907;42.812;23.216;2024-01-15T08:19:04;94753.53;;;-0.72;81.65
10732;BME280;74907;42.812;23.216;2024-01-15T08:21:31;94749.16;;;-0.42;80.92
10732;BME280;74907;42.812;23.216;2024-01-15T08:23:58;94747.13;;;-0.32;79.33
10732;BME280;74907;42.812;23.216;2024-01-15T08:26:29;94752.56;;;-0.16;78.39
10732;BME280;74907;42.812;23.216;2024-01-15T08:28:56;94750.28;;;0.01;77.04
10732;BME280;74907;42.812;23.216;2024-01-15T08:31:23;94752.16;;;0.19;76.51
10732;BME280;74907;42.812;23.216;2024-01-15T08:33:50;94743.88;;;0.36;75.07
10732;BME280;74907;42.812;23.216;2024-01-15T08:36:16;94728.19;;;0.22;74.61
10732;BME280;74907;42.812;23.216;2024-01-15T08:38:43;94734.25;;;0.19;74.85
10732;BME280;74907;42.812;23.216;2024-01-15T08:41:10;94745.00;;;0.29;74.69
10732;BME280;74907;42.812;23.216;2024-01-15T08:43:38;94727.41;;;0.43;73.45
10732;BME280;74907;42.812;23.216;2024-01-15T08:46:05;94725.91;;;0.38;73.99
10732;BME280;74907;42.812;23.216;2024-01-15T08:48:32;94720.59;;;0.42;73.88
10732;BME280;74907;42.812;23.216;2024-01-15T08:50:59;94722.78;;;0.29;75.13
10732;BME280;74907;42.812;23.216;2024-01-15T08:53:26;94715.47;;;0.42;75.63
10732;BME280;74907;42.812;23.216;2024-01-15T08:55:53;94710.66;;;0.35;76.33
10732;BME280;74907;42.812;23.216;2024-01-15T08:58:19;94701.75;;;0.21;76.98
10732;BME280;74907;42.812;23.216;2024-01-15T09:00:47;94700.59;;;0.30;77.26
10732;BME280;74907;42.812;23.216;2024-01-15T09:03:14;94704.13;;;0.49;76.01
10732;BME280;74907;42.812;23.216;2024-01-15T09:05:41;94698.50;;;0.63;75.24
10732;BME280;74907;42.812;23.216;2024-01-15T09:08:08;94692.47;;;0.64;77.11
10732;BME280;74907;42.812;23.216;2024-01-15T09:10:35;94691.00;;;0.58;76.18
10732;BME280;74907;42.812;23.216;2024-01-15T09:13:02;94690.34;;;0.53;75.88
10732;BME280;74907;42.812;23.216;2024-01-15T09:15:30;94682.81;;;0.49;75.80
10732;BME280;74907;42.812;23.216;2024-01-15T09:17:58;94670.38;;;0.61;75.47
10732;BME280;74907;42.812;23.216;2024-01-15T09:20:24;94666.72;;;0.89;75.10
10732;BME280;74907;42.812;23.216;2024-01-15T09:22:52;94663.75;;;1.00;74.20
10732;BME280;74907;42.812;23.216;2024-01-15T09:25:19;94659.31;;;1.25;73.60
10732;BME280;74907;42.812;23.216;2024-01-15T09:27:46;94652.00;;;1.56;73.01
10732;BME280;74907;42.812;23.216;2024-01-15T09:30:14;94640.53;;;1.65;72.00
10732;BME280;74907;42.812;23.216;2024-01-15T09:32:39;94644.31;;;1.96;71.21
10732;BME280;74907;42.812;23.216;2024-01-15T09:35:08;94635.19;;;2.28;71.04
10732;BME280;74907;42.812;23.216;2024-01-15T09:37:35;94601.25;;;2.57;68.70
10732;BME280;74907;42.812;23.216;2024-01-15T09:40:03;94605.38;;;2.61;67.02
10732;BME280;74907;42.812;23.216;2024-01-15T09:42:30;94597.47;;;2.83;66.18
10732;BME280;74907;42.812;23.216;2024-01-15T09:44:57;94580.00;;;2.90;64.64
10732;BME280;74907;42.812;23.216;2024-01-15T09:47:24;94573.81;;;3.11;62.34
10732;BME280;74907;42.812;23.216;2024-01-15T09:49:51;94575.72;;;3.25;61.65
10732;BME280;74907;42.812;23.216;2024-01-15T09:52:20;94580.06;;;3.40;60.30
10732;BME280;74907;42.812;23.216;2024-01-15T09:54:48;94594.59;;;3.41;59.99
10732;BME280;74907;42.812;23.216;2024-01-15T09:57:16;94577.34;;;3.43;60.76
10732;BME280;74907;42.812;23.216;2024-01-15T09:59:43;94577.88;;;3.49;60.64
10732;BME280;74907;42.812;23.216;2024-01-15T10:02:13;94571.03;;;3.66;60.40
10732;BME280;74907;42.812;23.216;2024-01-15T10:04:44;94552.38;;;3.78;59.52
10732;BME280;74907;42.812;23.216;2024-01-15T10:07:15;94547.41;;;3.91;59.19
10732;BME280;74907;42.812;23.216;2024-01-15T10:09:44;94529.81;;;3.99;59.22
10732;BME280;74907;42.812;23.216;2024-01-15T10:12:11;94525.47;;;4.15;58.73
10732;BME280;74907;42.812;23.216;2024-01-15T10:14:38;94518.75;;;3.97;58.88
10732;BME280;74907;42.812;23.216;2024-01-15T10:17:12;94514.94;;;4.20;60.02
10732;BME280;74907;42.812;23.216;2024-01-15T10:19:39;94504.13;;;4.29;58.11
10732;BME280;74907;42.812;23.216;2024-01-15T10:22:07;94515.63;;;4.23;57.04
10732;BME280;74907;42.812;23.216;2024-01-15T10:24:37;94507.03;;;4.38;57.18
10732;BME280;74907;42.812;23.216;2024-01-15T10:27:09;94504.97;;;4.29;57.34
10732;BME280;74907;42.812;23.216;2024-01-15T10:29:36;94497.09;;;4.17;58.08
10732;BME280;74907;42.812;23.216;2024-01-15T10:32:06;94502.56;;;4.10;58.22
10732;BME280;74907;42.812;23.216;2024-01-15T10:34:33;94505.03;;;4.43;57.81
10732;BME280;74907;42.812;23.216;2024-01-15T10:37:04;94489.91;;;4.67;58.17
10732;BME280;74907;42.812;23.216;2024-01-15T10:39:40;94469.09;;;4.86;56.53
10732;BME280;74907;42.812;23.216;2024-01-15T10:42:09;94471.59;;;5.02;57.10
10732;BME280;74907;42.812;23.216;2024-01-15T10:44:37;94476.28;;;4.95;57.61
10732;BME280;74907;42.812;23.216;2024-01-15T10:47:04;94484.59;;;5.15;56.93
10732;BME280;74907;42.812;23.216;2024-01-15T10:49:31;94482.94;;;5.14;56.52
10732;BME280;74907;42.812;23.216;2024-01-15T10:51:58;94477.69;;;5.15;57.39
10732;BME280;74907;42.812;23.216;2024-01-15T10:54:26;94466.53;;;5.15;57.32
10732;BME280;74907;42.812;23.216;2024-01-15T10:56:54;94463.03;;;5.16;58.16
10732;BME280;74907;42.812;23.216;2024-01-15T10:59:24;94460.84;;;5.24;58.12
10732;BME280;74907;42.812;23.216;2024-01-15T11:01:51;94445.09;;;5.28;57.62
10732;BME280;74907;42.812;23.216;2024-01-15T11:04:19;94441.88;;;5.39;57.13
10732;BME280;74907;42.812;23.216;2024-01-15T11:06:49;94434.38;;;5.49;56.76
10732;BME280;74907;42.812;23.216;2024-01-15T11:09:16;94431.06;;;5.61;56.68
10732;BME280;74907;42.812;23.216;2024-01-15T11:11:45;94430.75;;;5.94;56.58
10732;BME280;74907;42.812;23.216;2024-01-15T11:14:39;94432.72;;;6.17;55.68
10732;BME280;74907;42.812;23.216;2024-01-15T11:17:09;94430.63;;;6.37;54.56
10732;BME280;74907;42.812;23.216;2024-01-15T11:19:37;94426.00;;;6.54;52.96
10732;BME280;74907;42.812;23.216;2024-01-15T11:22:07;94427.47;;;6.58;53.27
10732;BME280;74907;42.812;23.216;2024-01-15T11:24:35;94416.09;;;6.74;54.11
10732;BME280;74907;42.812;23.216;2024-01-15T11:27:03;94414.56;;;6.71;52.54
10732;BME280;74907;42.812;23.216;2024-01-15T11:29:32;94410.03;;;6.87;53.00
10732;BME280;74907;42.812;23.216;2024-01-15T11:32:05;94394.63;;;7.11;52.89
10732;BME280;74907;42.812;23.216;2024-01-15T11:34:52;94404.97;;;7.11;53.10
10732;BME280;74907;42.812;23.216;2024-01-15T11:37:18;94403.72;;;7.17;53.78
10732;BME280;74907;42.812;23.216;2024-01-15T11:39:46;94405.88;;;7.23;54.50
10732;BME280;74907;42.812;23.216;2024-01-15T11:42:22;94405.88;;;7.23;53.07
10732;BME280;74907;42.812;23.216;2024-01-15T11:44:49;94402.69;;;7.07;53.88
10732;BME280;74907;42.812;23.216;2024-01-15T11:50:08;94390.69;;;6.93;53.32
10732;BME280;74907;42.812;23.216;2024-01-15T11:52:38;94375.06;;;7.07;53.11
10732;BME280;74907;42.812;23.216;2024-01-15T11:55:11;94373.28;;;7.20;52.97
10732;BME280;74907;42.812;23.216;2024-01-15T11:57:45;94378.25;;;7.23;52.90
10732;BME280;74907;42.812;23.216;2024-01-15T12:00:13;94370.50;;;7.11;53.31
10732;BME280;74907;42.812;23.216;2024-01-15T12:02:43;94373.91;;;6.99;53.12
10732;BME280;74907;42.812;23.216;2024-01-15T12:05:11;94371.84;;;6.91;53.57
10732;BME280;74907;42.812;23.216;2024-01-15T12:07:41;94372.59;;;6.80;55.52
10732;BME280;74907;42.812;23.216;2024-01-15T12:10:09;94371.53;;;6.83;55.01
10732;BME280;74907;42.812;23.216;2024-01-15T12:12:57;94356.44;;;6.89;54.92
10732;BME280;74907;42.812;23.216;2024-01-15T12:15:25;94349.09;;;6.96;53.24
10732;BME280;74907;42.812;23.216;2024-01-15T12:17:54;94351.16;;;6.78;55.58
10732;BME280;74907;42.812;23.216;2024-01-15T12:20:23;94340.81;;;6.78;55.78
10732;BME280;74907;42.812;23.216;2024-01-15T12:22:50;94341.84;;;6.88;54.59
10732;BME280;74907;42.812;23.216;2024-01-15T12:25:17;94343.41;;;6.91;54.70
10732;BME280;74907;42.812;23.216;2024-01-15T12:27:44;94343.16;;;7.07;54.68
10732;BME280;74907;42.812;23.216;2024-01-15T12:30:11;94339.97;;;7.03;55.00
10732;BME280;74907;42.812;23.216;2024-01-15T12:32:40;94341.13;;;6.99;54.42
10732;BME280;74907;42.812;23.216;2024-01-15T12:35:09;94333.78;;;6.93;54.73
10732;BME280;74907;42.812;23.216;2024-01-15T12:37:36;94327.25;;;6.87;54.12
10732;BME280;74907;42.812;23.216;2024-01-15T12:40:03;94328.81;;;6.90;53.57
10732;BME280;74907;42.812;23.216;2024-01-15T12:42:32;94321.84;;;7.03;52.47
10732;BME280;74907;42.812;23.216;2024-01-15T12:45:00;94329.31;;;6.95;53.57
10732;BME280;74907;42.812;23.216;2024-01-15T12:47:28;94325.91;;;6.94;53.65
10732;BME280;74907;42.812;23.216;2024-01-15T12:49:55;94322.06;;;6.75;54.61
10732;BME280;74907;42.812;23.216;2024-01-15T12:52:23;94331.38;;;6.52;56.33
10732;BME280;74907;42.812;23.216;2024-01-15T12:54:50;94316.59;;;6.41;57.43
10732;BME280;74907;42.812;23.216;2024-01-15T12:57:16;94311.41;;;6.28;55.60